Terminal Aerodrome Forecast
Issued by NWS New Orleans/Baton Rouge, LA

Home | Current Version | Previous Version | Text Only | Print | Product List | Glossary On
Versions: 1 2 3 4 5 6 7 8 9 10 11 12 13 14 15 16 17 18 19 20 21 22 23 24 25
000
FTUS44 KLIX 221130
TAFNEW
TAF
KNEW 221130Z 2212/2312 03013KT P6SM OVC009
     FM221400 05011KT P6SM BKN030
     FM221700 08008KT P6SM SCT030 BKN050
     FM230100 12006KT P6SM FEW030 SCT250
     FM230300 11006KT P6SM BKN040=

USA.gov is the U.S. government's official web portal to all federal, state and local government web resources and services.